sensor_id;sensor_type;location;lat;lon;timestamp;pressure;altitude;pressure_sealevel;temperature;humidity
12759;BME280;20944;47.048;15.390;2022-10-16T00:02:36;97837.16;;;11.87;100.00
12759;BME280;20944;47.048;15.390;2022-10-16T00:05:26;97841.69;;;11.82;100.00
12759;BME280;20944;47.048;15.390;2022-10-16T00:08:14;97849.56;;;11.82;100.00
12759;BME280;20944;47.048;15.390;2022-10-16T00:11:03;97845.19;;;11.81;100.00
12759;BME280;20944;47.048;15.390;2022-10-16T00:13:54;97849.56;;;11.82;100.00
12759;BME280;20944;47.048;15.390;2022-10-16T00:16:43;97839.78;;;11.87;100.00
12759;BME280;20944;47.048;15.390;2022-10-16T00:19:31;97849.22;;;11.95;100.00
12759;BME280;20944;47.048;15.390;2022-10-16T00:22:21;97847.66;;;11.87;100.00
12759;BME280;20944;47.048;15.390;2022-10-16T00:25:10;97851.13;;;11.90;100.00
12759;BME280;20944;47.048;15.390;2022-10-16T00:27:58;97861.66;;;11.88;100.00
12759;BME280;20944;47.048;15.390;2022-10-16T00:30:47;97854.59;;;11.90;100.00
12759;BME280;20944;47.048;15.390;2022-10-16T00:33:36;97848.44;;;11.91;100.00
12759;BME280;20944;47.048;15.390;2022-10-16T00:36:25;97844.72;;;11.98;100.00
12759;BME280;20944;47.048;15.390;2022-10-16T00:39:15;97848.78;;;12.08;100.00
12759;BME280;20944;47.048;15.390;2022-10-16T00:42:03;97861.06;;;12.08;100.00
12759;BME280;20944;47.048;15.390;2022-10-16T00:44:52;97873.38;;;12.06;100.00
12759;BME280;20944;47.048;15.390;2022-10-16T00:47:43;97870.34;;;11.90;100.00
12759;BME280;20944;47.048;15.390;2022-10-16T00:50:35;97865.34;;;11.81;100.00
12759;BME280;20944;47.048;15.390;2022-10-16T00:53:24;97874.16;;;11.78;100.00
12759;BME280;20944;47.048;15.390;2022-10-16T00:56:14;97870.66;;;11.78;100.00
12759;BME280;20944;47.048;15.390;2022-10-16T00:59:03;97874.44;;;11.69;100.00
12759;BME280;20944;47.048;15.390;2022-10-16T01:01:53;97877.06;;;11.68;100.00
12759;BME280;20944;47.048;15.390;2022-10-16T01:04:43;97870.16;;;11.65;100.00
12759;BME280;20944;47.048;15.390;2022-10-16T01:07:36;97871.94;;;11.65;100.00
12759;BME280;20944;47.048;15.390;2022-10-16T01:10:29;97875.34;;;11.67;100.00
12759;BME280;20944;47.048;15.390;2022-10-16T01:13:21;97872.56;;;11.73;100.00
12759;BME280;20944;47.048;15.390;2022-10-16T01:16:13;97874.44;;;11.68;100.00
12759;BME280;20944;47.048;15.390;2022-10-16T01:19:05;97875.31;;;11.68;100.00
12759;BME280;20944;47.048;15.390;2022-10-16T01:21:56;97869.25;;;11.66;100.00
12759;BME280;20944;47.048;15.390;2022-10-16T01:24:48;97863.09;;;11.67;100.00
12759;BME280;20944;47.048;15.390;2022-10-16T01:27:38;97865.75;;;11.66;100.00
12759;BME280;20944;47.048;15.390;2022-10-16T01:30:29;97870.22;;;11.64;100.00
12759;BME280;20944;47.048;15.390;2022-10-16T01:33:20;97870.09;;;11.67;100.00
12759;BME280;20944;47.048;15.390;2022-10-16T01:36:10;97879.75;;;11.66;100.00
12759;BME280;20944;47.048;15.390;2022-10-16T01:39:00;97878.84;;;11.67;100.00
12759;BME280;20944;47.048;15.390;2022-10-16T01:41:51;97883.19;;;11.68;100.00
12759;BME280;20944;47.048;15.390;2022-10-16T01:44:44;97876.16;;;11.70;100.00
12759;BME280;20944;47.048;15.390;2022-10-16T01:47:34;97876.31;;;11.64;100.00
12759;BME280;20944;47.048;15.390;2022-10-16T01:50:23;97878.16;;;11.60;100.00
12759;BME280;20944;47.048;15.390;2022-10-16T01:53:12;97872.63;;;11.71;100.00
12759;BME280;20944;47.048;15.390;2022-10-16T01:56:03;97878.72;;;11.72;100.00
12759;BME280;20944;47.048;15.390;2022-10-16T01:58:55;97863.94;;;11.68;100.00
12759;BME280;20944;47.048;15.390;2022-10-16T02:01:48;97861.38;;;11.66;100.00
12759;BME280;20944;47.048;15.390;2022-10-16T02:04:39;97863.66;;;11.47;100.00
12759;BME280;20944;47.048;15.390;2022-10-16T02:07:30;97867.22;;;11.45;100.00
12759;BME280;20944;47.048;15.390;2022-10-16T02:10:19;97865.47;;;11.45;100.00
12759;BME280;20944;47.048;15.390;2022-10-16T02:13:08;97866.44;;;11.41;100.00
12759;BME280;20944;47.048;15.390;2022-10-16T02:15:57;97871.69;;;11.41;100.00
12759;BME280;20944;47.048;15.390;2022-10-16T02:18:47;97867.41;;;11.37;100.00
12759;BME280;20944;47.048;15.390;2022-10-16T02:21:38;97870.91;;;11.38;100.00
12759;BME280;20944;47.048;15.390;2022-10-16T02:24:31;97871.63;;;11.44;100.00
12759;BME280;20944;47.048;15.390;2022-10-16T02:27:22;97883.84;;;11.44;100.00
12759;BME280;20944;47.048;15.390;2022-10-16T02:30:13;97883.78;;;11.47;100.00
12759;BME280;20944;47.048;15.390;2022-10-16T02:33:02;97885.44;;;11.51;100.00
12759;BME280;20944;47.048;15.390;2022-10-16T02:35:53;97888.13;;;11.48;100.00
12759;BME280;20944;47.048;15.390;2022-10-16T02:38:42;97883.00;;;11.43;100.00
12759;BME280;20944;47.048;15.390;2022-10-16T02:41:31;97890.00;;;11.44;100.00
12759;BME280;20944;47.048;15.390;2022-10-16T02:44:19;97883.50;;;11.57;100.00
12759;BME280;20944;47.048;15.390;2022-10-16T02:47:08;97886.16;;;11.56;100.00
12759;BME280;20944;47.048;15.390;2022-10-16T02:49:59;97888.06;;;11.49;100.00
12759;BME280;20944;47.048;15.390;2022-10-16T02:52:49;97889.19;;;11.41;100.00
12759;BME280;20944;47.048;15.390;2022-10-16T02:55:37;97896.16;;;11.42;100.00
12759;BME280;20944;47.048;15.390;2022-10-16T02:58:25;97890.88;;;11.43;100.00
12759;BME280;20944;47.048;15.390;2022-10-16T03:01:14;97891.88;;;11.39;100.00
12759;BME280;20944;47.048;15.390;2022-10-16T03:04:03;97896.28;;;11.37;100.00
12759;BME280;20944;47.048;15.390;2022-10-16T03:06:52;97919.88;;;11.39;100.00
12759;BME280;20944;47.048;15.390;2022-10-16T03:09:41;97909.34;;;11.40;100.00
12759;BME280;20944;47.048;15.390;2022-10-16T03:12:30;97910.06;;;11.45;100.00
12759;BME280;20944;47.048;15.390;2022-10-16T03:15:18;97906.44;;;11.51;100.00
12759;BME280;20944;47.048;15.390;2022-10-16T03:18:07;97902.94;;;11.50;100.00
12759;BME280;20944;47.048;15.390;2022-10-16T03:20:55;97893.44;;;11.46;100.00
12759;BME280;20944;47.048;15.390;2022-10-16T03:23:43;97896.28;;;11.37;100.00
12759;BME280;20944;47.048;15.390;2022-10-16T03:26:33;97894.63;;;11.34;100.00
12759;BME280;20944;47.048;15.390;2022-10-16T03:29:21;97887.66;;;11.33;100.00
12759;BME280;20944;47.048;15.390;2022-10-16T03:32:09;97887.44;;;11.41;100.00
12759;BME280;20944;47.048;15.390;2022-10-16T03:34:58;97894.44;;;11.41;100.00
12759;BME280;20944;47.048;15.390;2022-10-16T03:37:46;97891.88;;;11.38;100.00
12759;BME280;20944;47.048;15.390;2022-10-16T03:40:34;97893.63;;;11.39;100.00
12759;BME280;20944;47.048;15.390;2022-10-16T03:43:24;97900.50;;;11.43;100.00
12759;BME280;20944;47.048;15.390;2022-10-16T03:46:12;97900.50;;;11.43;100.00
12759;BME280;20944;47.048;15.390;2022-10-16T03:49:01;97910.34;;;11.34;100.00
12759;BME280;20944;47.048;15.390;2022-10-16T03:51:54;97915.50;;;11.38;100.00
12759;BME280;20944;47.048;15.390;2022-10-16T03:54:42;97907.47;;;11.44;100.00
12759;BME280;20944;47.048;15.390;2022-10-16T03:57:31;97910.84;;;11.49;100.00
12759;BME280;20944;47.048;15.390;2022-10-16T04:00:20;97917.78;;;11.51;100.00
12759;BME280;20944;47.048;15.390;2022-10-16T04:03:09;97919.63;;;11.48;100.00
12759;BME280;20944;47.048;15.390;2022-10-16T04:05:57;97924.13;;;11.43;100.00
12759;BME280;20944;47.048;15.390;2022-10-16T04:08:46;97921.69;;;11.35;100.00
12759;BME280;20944;47.048;15.390;2022-10-16T04:11:34;97916.56;;;11.30;100.00
12759;BME280;20944;47.048;15.390;2022-10-16T04:14:22;97918.28;;;11.33;100.00
12759;BME280;20944;47.048;15.390;2022-10-16T04:17:12;97931.38;;;11.33;100.00
12759;BME280;20944;47.048;15.390;2022-10-16T04:20:00;97929.81;;;11.26;100.00
12759;BME280;20944;47.048;15.390;2022-10-16T04:22:49;97927.06;;;11.30;100.00
12759;BME280;20944;47.048;15.390;2022-10-16T04:25:37;97932.13;;;11.38;100.00
12759;BME280;20944;47.048;15.390;2022-10-16T04:28:25;97919.88;;;11.39;100.00
12759;BME280;20944;47.048;15.390;2022-10-16T04:31:14;97926.13;;;11.33;100.00
12759;BME280;20944;47.048;15.390;2022-10-16T04:34:04;97926.91;;;11.37;100.00
12759;BME280;20944;47.048;15.390;2022-10-16T04:36:52;97934.88;;;11.33;100.00
12759;BME280;20944;47.048;15.390;2022-10-16T04:39:40;97934.16;;;11.27;100.00
12759;BME280;20944;47.048;15.390;2022-10-16T04:42:29;97929.78;;;11.27;100.00
12759;BME280;20944;47.048;15.390;2022-10-16T04:45:17;97938.63;;;11.23;100.00
12759;BME280;20944;47.048;15.390;2022-10-16T04:48:05;97936.19;;;11.16;100.00
12759;BME280;20944;47.048;15.390;2022-10-16T04:50:55;97937.22;;;11.10;100.00
12759;BME280;20944;47.048;15.390;2022-10-16T04:53:44;97935.53;;;11.06;100.00
12759;BME280;20944;47.048;15.390;2022-10-16T04:56:32;97934.81;;;11.01;100.00
12759;BME280;20944;47.048;15.390;2022-10-16T04:59:26;97938.97;;;11.10;100.00
12759;BME280;20944;47.048;15.390;2022-10-16T05:02:15;97950.13;;;11.18;100.00
12759;BME280;20944;47.048;15.390;2022-10-16T05:05:03;97951.38;;;11.03;100.00
12759;BME280;20944;47.048;15.390;2022-10-16T05:07:53;97956.75;;;10.97;100.00
12759;BME280;20944;47.048;15.390;2022-10-16T05:10:42;97967.03;;;11.06;100.00
12759;BME280;20944;47.048;15.390;2022-10-16T05:13:31;97954.59;;;11.14;100.00
12759;BME280;20944;47.048;15.390;2022-10-16T05:16:19;97962.38;;;11.17;100.00
12759;BME280;20944;47.048;15.390;2022-10-16T05:19:08;97967.91;;;11.05;100.00
12759;BME280;20944;47.048;15.390;2022-10-16T05:22:14;97966.28;;;11.01;100.00
12759;BME280;20944;47.048;15.390;2022-10-16T05:25:05;97976.59;;;11.08;100.00
12759;BME280;20944;47.048;15.390;2022-10-16T05:27:54;97977.56;;;11.04;100.00
12759;BME280;20944;47.048;15.390;2022-10-16T05:30:42;97990.66;;;11.04;100.00
12759;BME280;20944;47.048;15.390;2022-10-16T05:33:30;97989.84;;;11.02;100.00
12759;BME280;20944;47.048;15.390;2022-10-16T05:36:19;97988.84;;;11.08;100.00
12759;BME280;20944;47.048;15.390;2022-10-16T05:39:14;97994.84;;;11.13;100.00
12759;BME280;20944;47.048;15.390;2022-10-16T05:42:04;97990.31;;;11.20;100.00
12759;BME280;20944;47.048;15.390;2022-10-16T05:44:53;97989.50;;;11.16;100.00
12759;BME280;20944;47.048;15.390;2022-10-16T05:47:41;97987.84;;;11.14;100.00
12759;BME280;20944;47.048;15.390;2022-10-16T05:50:30;97990.47;;;11.14;100.00
12759;BME280;20944;47.048;15.390;2022-10-16T05:53:18;97987.84;;;11.14;100.00
12759;BME280;20944;47.048;15.390;2022-10-16T05:56:12;97993.91;;;11.16;100.00
12759;BME280;20944;47.048;15.390;2022-10-16T05:59:02;98006.06;;;11.20;100.00
12759;BME280;20944;47.048;15.390;2022-10-16T06:01:50;98005.09;;;11.22;100.00
12759;BME280;20944;47.048;15.390;2022-10-16T06:04:40;98020.78;;;11.25;100.00
12759;BME280;20944;47.048;15.390;2022-10-16T06:07:28;98025.94;;;11.28;100.00
12759;BME280;20944;47.048;15.390;2022-10-16T06:10:17;98033.84;;;11.27;100.00
12759;BME280;20944;47.048;15.390;2022-10-16T06:13:05;98031.19;;;11.28;100.00
12759;BME280;20944;47.048;15.390;2022-10-16T06:15:56;98027.59;;;11.32;100.00
12759;BME280;20944;47.048;15.390;2022-10-16T06:18:45;98036.28;;;11.34;100.00
12759;BME280;20944;47.048;15.390;2022-10-16T06:21:34;98038.66;;;11.44;100.00
12759;BME280;20944;47.048;15.390;2022-10-16T06:24:22;98043.81;;;11.48;100.00
12759;BME280;20944;47.048;15.390;2022-10-16T06:27:10;98043.78;;;11.50;100.00
12759;BME280;20944;47.048;15.390;2022-10-16T06:29:59;98050.63;;;11.55;100.00
12759;BME280;20944;47.048;15.390;2022-10-16T06:32:49;98052.44;;;11.53;100.00
12759;BME280;20944;47.048;15.390;2022-10-16T06:35:37;98063.75;;;11.57;100.00
12759;BME280;20944;47.048;15.390;2022-10-16T06:38:25;98060.22;;;11.58;100.00
12759;BME280;20944;47.048;15.390;2022-10-16T06:41:14;98068.84;;;11.61;100.00
12759;BME280;20944;47.048;15.390;2022-10-16T06:44:04;98072.88;;;11.76;100.00
12759;BME280;20944;47.048;15.390;2022-10-16T06:46:53;98073.66;;;11.80;100.00
12759;BME280;20944;47.048;15.390;2022-10-16T06:49:43;98081.34;;;11.89;100.00
12759;BME280;20944;47.048;15.390;2022-10-16T06:52:36;98079.69;;;11.85;100.00
12759;BME280;20944;47.048;15.390;2022-10-16T06:55:24;98085.88;;;11.82;100.00
12759;BME280;20944;47.048;15.390;2022-10-16T06:58:12;98086.59;;;11.87;100.00
12759;BME280;20944;47.048;15.390;2022-10-16T07:01:01;98084.06;;;11.84;100.00
12759;BME280;20944;47.048;15.390;2022-10-16T07:03:49;98086.38;;;11.97;100.00
12759;BME280;20944;47.048;15.390;2022-10-16T07:06:39;98088.91;;;12.01;100.00
12759;BME280;20944;47.048;15.390;2022-10-16T07:09:28;98087.16;;;12.00;100.00
12759;BME280;20944;47.048;15.390;2022-10-16T07:12:21;98086.28;;;12.00;100.00
12759;BME280;20944;47.048;15.390;2022-10-16T07:15:10;98085.28;;;12.05;100.00
12759;BME280;20944;47.048;15.390;2022-10-16T07:17:59;98087.72;;;12.11;100.00
12759;BME280;20944;47.048;15.390;2022-10-16T07:20:48;98087.34;;;12.25;100.00
12759;BME280;20944;47.048;15.390;2022-10-16T07:23:38;98085.13;;;12.42;100.00
12759;BME280;20944;47.048;15.390;2022-10-16T07:26:27;98095.38;;;12.53;100.00
12759;BME280;20944;47.048;15.390;2022-10-16T07:29:17;98097.88;;;12.58;100.00
12759;BME280;20944;47.048;15.390;2022-10-16T07:32:06;98094.16;;;12.65;100.00
12759;BME280;20944;47.048;15.390;2022-10-16T07:34:54;98100.84;;;12.77;100.00
12759;BME280;20944;47.048;15.390;2022-10-16T07:37:44;98095.22;;;12.89;100.00
12759;BME280;20944;47.048;15.390;2022-10-16T07:40:34;98094.19;;;12.93;100.00
12759;BME280;20944;47.048;15.390;2022-10-16T07:43:23;98102.16;;;12.91;100.00
12759;BME280;20944;47.048;15.390;2022-10-16T07:46:11;98102.22;;;12.88;100.00
12759;BME280;20944;47.048;15.390;2022-10-16T07:49:00;98099.53;;;12.91;100.00
12759;BME280;20944;47.048;15.390;2022-10-16T07:51:48;98101.16;;;12.95;100.00
12759;BME280;20944;47.048;15.390;2022-10-16T07:54:36;98099.34;;;12.98;100.00
12759;BME280;20944;47.048;15.390;2022-10-16T07:57:26;98104.28;;;13.08;100.00
12759;BME280;20944;47.048;15.390;2022-10-16T08:00:15;98114.03;;;13.05;100.00
12759;BME280;20944;47.048;15.390;2022-10-16T08:03:03;98109.22;;;12.89;100.00
12759;BME280;20944;47.048;15.390;2022-10-16T08:05:52;98110.78;;;12.96;100.00
12759;BME280;20944;47.048;15.390;2022-10-16T08:08:40;98108.59;;;13.11;100.00
12759;BME280;20944;47.048;15.390;2022-10-16T08:11:28;98105.84;;;13.43;100.00
12759;BME280;20944;47.048;15.390;2022-10-16T08:14:18;98103.22;;;13.71;100.00
12759;BME280;20944;47.048;15.390;2022-10-16T08:17:07;98109.47;;;13.94;100.00
12759;BME280;20944;47.048;15.390;2022-10-16T08:19:55;98106.47;;;14.04;100.00
12759;BME280;20944;47.048;15.390;2022-10-16T08:22:43;98109.22;;;14.26;100.00
12759;BME280;20944;47.048;15.390;2022-10-16T08:25:33;98107.25;;;14.58;100.00
12759;BME280;20944;47.048;15.390;2022-10-16T08:28:22;98110.56;;;14.88;100.00
12759;BME280;20944;47.048;15.390;2022-10-16T08:31:13;98110.84;;;15.04;100.00
12759;BME280;20944;47.048;15.390;2022-10-16T08:34:03;98116.13;;;15.04;100.00
12759;BME280;20944;47.048;15.390;2022-10-16T08:36:52;98111.09;;;14.98;100.00
12759;BME280;20944;47.048;15.390;2022-10-16T08:39:41;98115.31;;;15.02;100.00
12759;BME280;20944;47.048;15.390;2022-10-16T08:42:32;98123.97;;;15.05;100.00
12759;BME280;20944;47.048;15.390;2022-10-16T08:45:26;98124.22;;;15.23;100.00
12759;BME280;20944;47.048;15.390;2022-10-16T08:48:22;98128.78;;;15.41;100.00
12759;BME280;20944;47.048;15.390;2022-10-16T08:51:15;98123.44;;;15.64;100.00
12759;BME280;20944;47.048;15.390;2022-10-16T08:54:08;98127.75;;;15.89;100.00
12759;BME280;20944;47.048;15.390;2022-10-16T08:57:04;98130.88;;;15.99;100.00
12759;BME280;20944;47.048;15.390;2022-10-16T08:59:57;98120.66;;;16.11;100.00
12759;BME280;20944;47.048;15.390;2022-10-16T09:02:49;98128.19;;;16.21;100.00
12759;BME280;20944;47.048;15.390;2022-10-16T09:08:51;98135.94;;;16.45;100.00
12759;BME280;20944;47.048;15.390;2022-10-16T09:11:43;98130.97;;;16.58;100.00
12759;BME280;20944;47.048;15.390;2022-10-16T09:14:44;98125.81;;;16.76;100.00
12759;BME280;20944;47.048;15.390;2022-10-16T09:17:37;98123.97;;;16.78;100.00
12759;BME280;20944;47.048;15.390;2022-10-16T09:20:30;98127.72;;;16.92;100.00
12759;BME280;20944;47.048;15.390;2022-10-16T09:23:22;98125.75;;;16.97;100.00
12759;BME280;20944;47.048;15.390;2022-10-16T09:26:14;98131.34;;;17.10;100.00
12759;BME280;20944;47.048;15.390;2022-10-16T09:29:04;98132.69;;;17.19;100.00
12759;BME280;20944;47.048;15.390;2022-10-16T09:31:53;98132.97;;;17.32;100.00
12759;BME280;20944;47.048;15.390;2022-10-16T09:34:43;98128.13;;;17.41;100.00
12759;BME280;20944;47.048;15.390;2022-10-16T09:37:33;98131.25;;;17.49;100.00
12759;BME280;20944;47.048;15.390;2022-10-16T09:40:25;98128.38;;;17.54;100.00
12759;BME280;20944;47.048;15.390;2022-10-16T09:43:19;98126.91;;;17.66;100.00
12759;BME280;20944;47.048;15.390;2022-10-16T09:46:08;98118.75;;;17.70;100.00
12759;BME280;20944;47.048;15.390;2022-10-16T09:49:18;98121.41;;;17.70;100.00
12759;BME280;20944;47.048;15.390;2022-10-16T09:52:11;98129.00;;;17.78;100.00
12759;BME280;20944;47.048;15.390;2022-10-16T09:55:00;98129.13;;;17.94;100.00
12759;BME280;20944;47.048;15.390;2022-10-16T09:57:49;98126.00;;;18.03;100.00
12759;BME280;20944;47.048;15.390;2022-10-16T10:00:39;98129.16;;;18.11;100.00
12759;BME280;20944;47.048;15.390;2022-10-16T10:03:36;98128.97;;;18.14;100.00
12759;BME280;20944;47.048;15.390;2022-10-16T10:06:26;98124.09;;;18.24;100.00
12759;BME280;20944;47.048;15.390;2022-10-16T10:09:19;98126.13;;;18.36;100.00
12759;BME280;20944;47.048;15.390;2022-10-16T10:12:14;98124.53;;;18.49;100.00
12759;BME280;20944;47.048;15.390;2022-10-16T10:15:10;98117.47;;;18.67;100.00
12759;BME280;20944;47.048;15.390;2022-10-16T10:18:01;98119.47;;;18.79;100.00
12759;BME280;20944;47.048;15.390;2022-10-16T10:20:59;98124.28;;;18.89;100.00
12759;BME280;20944;47.048;15.390;2022-10-16T10:23:55;98112.22;;;18.99;100.00
12759;BME280;20944;47.048;15.390;2022-10-16T10:26:49;98122.09;;;19.12;100.00
12759;BME280;20944;47.048;15.390;2022-10-16T10:29:48;98106.25;;;19.11;100.00
12759;BME280;20944;47.048;15.390;2022-10-16T10:32:51;98111.94;;;19.36;100.00
12759;BME280;20944;47.048;15.390;2022-10-16T10:35:51;98058.31;;;19.28;100.00
12759;BME280;20944;47.048;15.390;2022-10-16T10:38:48;98072.75;;;19.24;100.00
12759;BME280;20944;47.048;15.390;2022-10-16T10:42:00;98056.53;;;19.45;100.00
12759;BME280;20944;47.048;15.390;2022-10-16T10:45:01;98081.91;;;19.66;100.00
12759;BME280;20944;47.048;15.390;2022-10-16T10:48:19;98082.09;;;19.63;100.00
12759;BME280;20944;47.048;15.390;2022-10-16T10:51:21;98067.75;;;19.50;100.00
12759;BME280;20944;47.048;15.390;2022-10-16T10:54:15;97995.94;;;19.20;100.00
12759;BME280;20944;47.048;15.390;2022-10-16T10:57:10;98104.09;;;19.97;100.00
12759;BME280;20944;47.048;15.390;2022-10-16T11:00:18;98057.78;;;19.85;100.00
12759;BME280;20944;47.048;15.390;2022-10-16T11:03:17;98097.53;;;20.18;100.00
12759;BME280;20944;47.048;15.390;2022-10-16T11:06:16;98104.31;;;20.38;100.00
12759;BME280;20944;47.048;15.390;2022-10-16T11:09:10;98073.88;;;20.28;100.00
12759;BME280;20944;47.048;15.390;2022-10-16T11:12:05;98107.44;;;20.60;100.00
12759;BME280;20944;47.048;15.390;2022-10-16T11:15:00;98096.81;;;20.74;100.00
12759;BME280;20944;47.048;15.390;2022-10-16T11:17:52;98091.00;;;20.82;100.00
12759;BME280;20944;47.048;15.390;2022-10-16T11:20:47;98092.34;;;20.75;100.00
12759;BME280;20944;47.048;15.390;2022-10-16T11:23:42;98091.19;;;20.93;100.00
12759;BME280;20944;47.048;15.390;2022-10-16T11:26:35;98081.94;;;21.13;100.00
12759;BME280;20944;47.048;15.390;2022-10-16T11:29:30;98090.78;;;21.28;100.00
12759;BME280;20944;47.048;15.390;2022-10-16T11:32:23;98098.78;;;21.42;73.65
12759;BME280;20944;47.048;15.390;2022-10-16T11:35:19;98028.63;;;21.13;73.30
12759;BME280;20944;47.048;15.390;2022-10-16T11:38:15;98092.34;;;21.59;68.60
12759;BME280;20944;47.048;15.390;2022-10-16T11:41:17;98089.00;;;21.70;72.50
12759;BME280;20944;47.048;15.390;2022-10-16T11:44:16;98016.91;;;21.30;67.72
12759;BME280;20944;47.048;15.390;2022-10-16T11:47:16;98074.97;;;21.93;70.25
12759;BME280;20944;47.048;15.390;2022-10-16T11:50:32;98038.78;;;21.89;67.22
12759;BME280;20944;47.048;15.390;2022-10-16T11:53:31;98070.06;;;22.14;65.38
12759;BME280;20944;47.048;15.390;2022-10-16T11:56:24;98081.47;;;22.16;65.41
12759;BME280;20944;47.048;15.390;2022-10-16T11:59:20;98076.13;;;22.16;64.66
12759;BME280;20944;47.048;15.390;2022-10-16T12:02:29;98073.59;;;22.27;65.46
12759;BME280;20944;47.048;15.390;2022-10-16T12:05:25;98039.00;;;22.26;66.51
12759;BME280;20944;47.048;15.390;2022-10-16T12:08:18;97999.44;;;22.18;64.68
12759;BME280;20944;47.048;15.390;2022-10-16T12:11:19;98071.16;;;22.75;63.88
12759;BME280;20944;47.048;15.390;2022-10-16T12:14:34;98046.59;;;22.70;63.24
12759;BME280;20944;47.048;15.390;2022-10-16T12:17:43;98051.94;;;22.83;61.51
12759;BME280;20944;47.048;15.390;2022-10-16T12:20:33;98062.28;;;23.00;62.89
12759;BME280;20944;47.048;15.390;2022-10-16T12:23:23;98065.59;;;23.17;60.29
12759;BME280;20944;47.048;15.390;2022-10-16T12:26:12;98071.59;;;23.44;60.44
12759;BME280;20944;47.048;15.390;2022-10-16T12:29:14;98064.09;;;23.86;61.35
12759;BME280;20944;47.048;15.390;2022-10-16T12:32:24;98050.81;;;24.08;57.65
12759;BME280;20944;47.048;15.390;2022-10-16T12:35:34;98069.50;;;23.97;56.20
12759;BME280;20944;47.048;15.390;2022-10-16T12:38:37;98066.66;;;23.63;57.84
12759;BME280;20944;47.048;15.390;2022-10-16T12:41:28;98074.22;;;23.69;56.65
12759;BME280;20944;47.048;15.390;2022-10-16T12:44:23;98065.00;;;23.98;54.93
12759;BME280;20944;47.048;15.390;2022-10-16T12:47:22;97972.88;;;23.65;54.68
12759;BME280;20944;47.048;15.390;2022-10-16T12:50:25;98075.69;;;24.68;52.10
12759;BME280;20944;47.048;15.390;2022-10-16T12:53:19;98072.41;;;24.87;52.84
12759;BME280;20944;47.048;15.390;2022-10-16T12:56:14;98073.44;;;25.08;52.96
12759;BME280;20944;47.048;15.390;2022-10-16T12:59:16;98070.50;;;25.34;50.50
12759;BME280;20944;47.048;15.390;2022-10-16T13:02:23;98057.09;;;25.34;50.59
12759;BME280;20944;47.048;15.390;2022-10-16T13:05:28;98075.63;;;25.25;53.39
12759;BME280;20944;47.048;15.390;2022-10-16T13:08:38;98079.00;;;25.50;53.23
12759;BME280;20944;47.048;15.390;2022-10-16T13:11:39;98073.91;;;25.47;53.30
12759;BME280;20944;47.048;15.390;2022-10-16T13:17:48;98079.22;;;26.33;50.70
12759;BME280;20944;47.048;15.390;2022-10-16T13:20:52;98076.84;;;26.72;50.61
12759;BME280;20944;47.048;15.390;2022-10-16T13:23:49;98102.88;;;26.51;51.40
12759;BME280;20944;47.048;15.390;2022-10-16T13:26:46;98084.78;;;26.21;50.06
12759;BME280;20944;47.048;15.390;2022-10-16T13:29:38;98090.38;;;26.29;50.89
12759;BME280;20944;47.048;15.390;2022-10-16T13:32:28;98077.28;;;26.35;51.16
12759;BME280;20944;47.048;15.390;2022-10-16T13:35:24;98094.34;;;26.46;50.64
12759;BME280;20944;47.048;15.390;2022-10-16T13:38:15;98015.44;;;25.94;50.62
12759;BME280;20944;47.048;15.390;2022-10-16T13:41:05;98046.25;;;26.11;49.47
12759;BME280;20944;47.048;15.390;2022-10-16T13:43:56;98096.78;;;27.21;48.80
12759;BME280;20944;47.048;15.390;2022-10-16T13:46:45;98055.72;;;28.56;46.47
12759;BME280;20944;47.048;15.390;2022-10-16T13:49:33;98090.16;;;29.66;42.70
12759;BME280;20944;47.048;15.390;2022-10-16T13:52:23;98093.16;;;30.08;42.85
12759;BME280;20944;47.048;15.390;2022-10-16T13:55:14;98093.41;;;30.94;40.13
12759;BME280;20944;47.048;15.390;2022-10-16T13:58:08;98092.50;;;31.80;37.27
12759;BME280;20944;47.048;15.390;2022-10-16T14:01:02;98083.88;;;31.84;38.08
12759;BME280;20944;47.048;15.390;2022-10-16T14:03:52;98087.66;;;32.24;36.47
12759;BME280;20944;47.048;15.390;2022-10-16T14:06:43;98087.03;;;32.63;35.84
12759;BME280;20944;47.048;15.390;2022-10-16T14:09:34;98093.81;;;32.83;35.19
12759;BME280;20944;47.048;15.390;2022-10-16T14:12:23;98091.09;;;32.59;35.04
12759;BME280;20944;47.048;15.390;2022-10-16T14:15:17;98097.84;;;32.14;35.33
12759;BME280;20944;47.048;15.390;2022-10-16T14:18:06;98094.72;;;31.84;35.74
12759;BME280;20944;47.048;15.390;2022-10-16T14:21:02;98100.22;;;31.66;36.49
12759;BME280;20944;47.048;15.390;2022-10-16T14:23:52;98083.81;;;31.26;36.28
12759;BME280;20944;47.048;15.390;2022-10-16T14:26:43;98086.00;;;31.04;37.60
12759;BME280;20944;47.048;15.390;2022-10-16T14:29:37;98099.97;;;30.92;37.83
12759;BME280;20944;47.048;15.390;2022-10-16T14:32:26;98030.72;;;30.55;37.96
12759;BME280;20944;47.048;15.390;2022-10-16T14:35:24;98087.03;;;30.59;38.41
12759;BME280;20944;47.048;15.390;2022-10-16T14:38:18;98110.53;;;30.05;39.53
12759;BME280;20944;47.048;15.390;2022-10-16T14:41:07;98113.84;;;29.17;41.82
12759;BME280;20944;47.048;15.390;2022-10-16T14:44:00;98111.25;;;28.39;42.63
12759;BME280;20944;47.048;15.390;2022-10-16T14:46:50;98120.38;;;27.69;44.19
12759;BME280;20944;47.048;15.390;2022-10-16T14:49:38;98126.88;;;26.63;46.28
12759;BME280;20944;47.048;15.390;2022-10-16T14:52:27;98130.22;;;25.69;47.73
12759;BME280;20944;47.048;15.390;2022-10-16T14:55:16;98135.00;;;24.52;51.21
12759;BME280;20944;47.048;15.390;2022-10-16T14:58:05;98142.84;;;23.94;53.77